sensor_id;sensor_type;location;lat;lon;timestamp;P1;durP1;ratioP1;P2;durP2;ratioP2
75272;SDS011;63869;52.344;16.928;2023-04-21T00:01:49;22.25;;;12.38;;
75272;SDS011;63869;52.344;16.928;2023-04-21T00:04:14;21.88;;;12.73;;
75272;SDS011;63869;52.344;16.928;2023-04-21T00:06:41;22.27;;;12.77;;
75272;SDS011;63869;52.344;16.928;2023-04-21T00:09:08;22.10;;;13.50;;
75272;SDS011;63869;52.344;16.928;2023-04-21T00:11:34;20.45;;;13.10;;
75272;SDS011;63869;52.344;16.928;2023-04-21T00:14:00;20.27;;;12.75;;
75272;SDS011;63869;52.344;16.928;2023-04-21T00:16:25;19.50;;;12.25;;
75272;SDS011;63869;52.344;16.928;2023-04-21T00:18:51;21.63;;;13.20;;
75272;SDS011;63869;52.344;16.928;2023-04-21T00:21:16;20.98;;;13.05;;
75272;SDS011;63869;52.344;16.928;2023-04-21T00:23:42;21.95;;;12.73;;
75272;SDS011;63869;52.344;16.928;2023-04-21T00:26:07;22.80;;;13.63;;
75272;SDS011;63869;52.344;16.928;2023-04-21T00:28:33;20.42;;;12.45;;
75272;SDS011;63869;52.344;16.928;2023-04-21T00:30:58;24.25;;;13.10;;
75272;SDS011;63869;52.344;16.928;2023-04-21T00:33:23;17.58;;;11.63;;
75272;SDS011;63869;52.344;16.928;2023-04-21T00:35:49;20.00;;;13.07;;
75272;SDS011;63869;52.344;16.928;2023-04-21T00:38:14;24.27;;;13.45;;
75272;SDS011;63869;52.344;16.928;2023-04-21T00:40:39;21.60;;;13.35;;
75272;SDS011;63869;52.344;16.928;2023-04-21T00:43:05;23.23;;;13.35;;
75272;SDS011;63869;52.344;16.928;2023-04-21T00:45:31;23.95;;;13.40;;
75272;SDS011;63869;52.344;16.928;2023-04-21T00:47:57;23.02;;;12.82;;
75272;SDS011;63869;52.344;16.928;2023-04-21T00:50:23;19.48;;;12.32;;
75272;SDS011;63869;52.344;16.928;2023-04-21T00:52:48;19.58;;;12.98;;
75272;SDS011;63869;52.344;16.928;2023-04-21T00:55:14;22.73;;;12.52;;
75272;SDS011;63869;52.344;16.928;2023-04-21T00:57:39;21.90;;;13.40;;
75272;SDS011;63869;52.344;16.928;2023-04-21T01:00:05;20.65;;;12.40;;
75272;SDS011;63869;52.344;16.928;2023-04-21T01:02:34;18.23;;;12.50;;
75272;SDS011;63869;52.344;16.928;2023-04-21T01:05:02;21.25;;;12.95;;
75272;SDS011;63869;52.344;16.928;2023-04-21T01:07:31;23.05;;;13.07;;
75272;SDS011;63869;52.344;16.928;2023-04-21T01:09:56;21.20;;;12.38;;
75272;SDS011;63869;52.344;16.928;2023-04-21T01:12:22;18.65;;;12.38;;
75272;SDS011;63869;52.344;16.928;2023-04-21T01:14:47;20.40;;;12.40;;
75272;SDS011;63869;52.344;16.928;2023-04-21T01:17:12;23.10;;;13.00;;
75272;SDS011;63869;52.344;16.928;2023-04-21T01:19:39;20.35;;;12.50;;
75272;SDS011;63869;52.344;16.928;2023-04-21T01:22:09;22.90;;;13.13;;
75272;SDS011;63869;52.344;16.928;2023-04-21T01:24:36;23.15;;;13.18;;
75272;SDS011;63869;52.344;16.928;2023-04-21T01:27:09;20.65;;;13.50;;
75272;SDS011;63869;52.344;16.928;2023-04-21T01:29:37;22.27;;;13.10;;
75272;SDS011;63869;52.344;16.928;2023-04-21T01:32:15;23.00;;;13.43;;
75272;SDS011;63869;52.344;16.928;2023-04-21T01:34:43;26.35;;;12.82;;
75272;SDS011;63869;52.344;16.928;2023-04-21T01:37:10;21.10;;;13.02;;
75272;SDS011;63869;52.344;16.928;2023-04-21T01:39:43;26.50;;;13.50;;
75272;SDS011;63869;52.344;16.928;2023-04-21T01:42:09;24.45;;;13.52;;
75272;SDS011;63869;52.344;16.928;2023-04-21T01:44:35;23.77;;;13.55;;
75272;SDS011;63869;52.344;16.928;2023-04-21T01:47:01;22.48;;;12.60;;
75272;SDS011;63869;52.344;16.928;2023-04-21T01:49:26;23.70;;;13.35;;
75272;SDS011;63869;52.344;16.928;2023-04-21T01:51:52;23.35;;;13.02;;
75272;SDS011;63869;52.344;16.928;2023-04-21T01:54:17;23.10;;;12.95;;
75272;SDS011;63869;52.344;16.928;2023-04-21T01:56:42;22.25;;;12.90;;
75272;SDS011;63869;52.344;16.928;2023-04-21T01:59:08;19.08;;;12.45;;
75272;SDS011;63869;52.344;16.928;2023-04-21T02:01:33;26.20;;;12.50;;
75272;SDS011;63869;52.344;16.928;2023-04-21T02:04:00;19.92;;;12.98;;
75272;SDS011;63869;52.344;16.928;2023-04-21T02:06:26;23.10;;;13.07;;
75272;SDS011;63869;52.344;16.928;2023-04-21T02:08:51;22.75;;;12.85;;
75272;SDS011;63869;52.344;16.928;2023-04-21T02:11:16;21.95;;;12.88;;
75272;SDS011;63869;52.344;16.928;2023-04-21T02:13:41;24.58;;;14.00;;
75272;SDS011;63869;52.344;16.928;2023-04-21T02:16:07;23.13;;;13.65;;
75272;SDS011;63869;52.344;16.928;2023-04-21T02:18:32;20.75;;;12.27;;
75272;SDS011;63869;52.344;16.928;2023-04-21T02:20:59;21.90;;;13.10;;
75272;SDS011;63869;52.344;16.928;2023-04-21T02:23:24;21.15;;;12.68;;
75272;SDS011;63869;52.344;16.928;2023-04-21T02:25:50;20.83;;;13.02;;
75272;SDS011;63869;52.344;16.928;2023-04-21T02:28:15;21.17;;;12.77;;
75272;SDS011;63869;52.344;16.928;2023-04-21T02:30:40;21.15;;;12.52;;
75272;SDS011;63869;52.344;16.928;2023-04-21T02:33:05;24.20;;;13.10;;
75272;SDS011;63869;52.344;16.928;2023-04-21T02:35:31;21.02;;;12.38;;
75272;SDS011;63869;52.344;16.928;2023-04-21T02:37:57;22.35;;;13.13;;
75272;SDS011;63869;52.344;16.928;2023-04-21T02:40:23;19.75;;;12.30;;
75272;SDS011;63869;52.344;16.928;2023-04-21T02:42:48;23.50;;;13.45;;
75272;SDS011;63869;52.344;16.928;2023-04-21T02:45:13;22.35;;;13.40;;
75272;SDS011;63869;52.344;16.928;2023-04-21T02:47:40;18.92;;;12.70;;
75272;SDS011;63869;52.344;16.928;2023-04-21T02:50:05;23.90;;;13.13;;
75272;SDS011;63869;52.344;16.928;2023-04-21T02:52:34;26.15;;;13.77;;
75272;SDS011;63869;52.344;16.928;2023-04-21T02:55:00;19.25;;;11.90;;
75272;SDS011;63869;52.344;16.928;2023-04-21T02:57:27;23.20;;;13.38;;
75272;SDS011;63869;52.344;16.928;2023-04-21T02:59:52;23.25;;;13.40;;
75272;SDS011;63869;52.344;16.928;2023-04-21T03:02:17;21.50;;;13.50;;
75272;SDS011;63869;52.344;16.928;2023-04-21T03:04:43;22.13;;;12.77;;
75272;SDS011;63869;52.344;16.928;2023-04-21T03:07:11;23.27;;;13.68;;
75272;SDS011;63869;52.344;16.928;2023-04-21T03:09:38;23.60;;;13.27;;
75272;SDS011;63869;52.344;16.928;2023-04-21T03:12:03;21.95;;;12.77;;
75272;SDS011;63869;52.344;16.928;2023-04-21T03:14:29;21.90;;;13.00;;
75272;SDS011;63869;52.344;16.928;2023-04-21T03:16:54;21.60;;;12.88;;
75272;SDS011;63869;52.344;16.928;2023-04-21T03:19:19;22.13;;;13.35;;
75272;SDS011;63869;52.344;16.928;2023-04-21T03:21:45;24.40;;;13.63;;
75272;SDS011;63869;52.344;16.928;2023-04-21T03:24:10;22.48;;;12.98;;
75272;SDS011;63869;52.344;16.928;2023-04-21T03:26:37;21.17;;;12.93;;
75272;SDS011;63869;52.344;16.928;2023-04-21T03:29:03;27.35;;;13.93;;
75272;SDS011;63869;52.344;16.928;2023-04-21T03:31:28;21.35;;;13.35;;
75272;SDS011;63869;52.344;16.928;2023-04-21T03:33:54;21.90;;;13.35;;
75272;SDS011;63869;52.344;16.928;2023-04-21T03:36:19;21.10;;;13.00;;
75272;SDS011;63869;52.344;16.928;2023-04-21T03:38:44;21.45;;;13.32;;
75272;SDS011;63869;52.344;16.928;2023-04-21T03:41:10;23.17;;;13.27;;
75272;SDS011;63869;52.344;16.928;2023-04-21T03:43:35;23.38;;;12.88;;
75272;SDS011;63869;52.344;16.928;2023-04-21T03:46:00;22.35;;;12.30;;
75272;SDS011;63869;52.344;16.928;2023-04-21T03:48:26;21.83;;;12.82;;
75272;SDS011;63869;52.344;16.928;2023-04-21T03:50:52;22.13;;;13.00;;
75272;SDS011;63869;52.344;16.928;2023-04-21T03:53:17;19.98;;;12.55;;
75272;SDS011;63869;52.344;16.928;2023-04-21T03:55:43;25.30;;;12.93;;
75272;SDS011;63869;52.344;16.928;2023-04-21T03:58:12;21.17;;;12.15;;
75272;SDS011;63869;52.344;16.928;2023-04-21T04:00:38;21.35;;;12.80;;
75272;SDS011;63869;52.344;16.928;2023-04-21T04:03:03;22.83;;;12.75;;
75272;SDS011;63869;52.344;16.928;2023-04-21T04:05:29;20.15;;;12.38;;
75272;SDS011;63869;52.344;16.928;2023-04-21T04:07:54;21.73;;;12.55;;
75272;SDS011;63869;52.344;16.928;2023-04-21T04:10:19;20.98;;;12.20;;
75272;SDS011;63869;52.344;16.928;2023-04-21T04:12:45;24.08;;;12.15;;
75272;SDS011;63869;52.344;16.928;2023-04-21T04:15:10;19.98;;;12.73;;
75272;SDS011;63869;52.344;16.928;2023-04-21T04:17:35;21.98;;;12.05;;
75272;SDS011;63869;52.344;16.928;2023-04-21T04:20:00;19.73;;;12.10;;
75272;SDS011;63869;52.344;16.928;2023-04-21T04:22:28;21.10;;;12.57;;
75272;SDS011;63869;52.344;16.928;2023-04-21T04:24:53;21.15;;;11.90;;
75272;SDS011;63869;52.344;16.928;2023-04-21T04:27:19;22.85;;;12.38;;
75272;SDS011;63869;52.344;16.928;2023-04-21T04:29:44;18.38;;;11.85;;
75272;SDS011;63869;52.344;16.928;2023-04-21T04:32:10;20.23;;;11.95;;
75272;SDS011;63869;52.344;16.928;2023-04-21T04:34:35;20.67;;;12.02;;
75272;SDS011;63869;52.344;16.928;2023-04-21T04:37:01;23.13;;;12.52;;
75272;SDS011;63869;52.344;16.928;2023-04-21T04:39:27;20.08;;;12.57;;
75272;SDS011;63869;52.344;16.928;2023-04-21T04:41:52;20.67;;;11.68;;
75272;SDS011;63869;52.344;16.928;2023-04-21T04:44:18;21.35;;;12.27;;
75272;SDS011;63869;52.344;16.928;2023-04-21T04:46:43;21.00;;;11.85;;
75272;SDS011;63869;52.344;16.928;2023-04-21T04:49:09;22.35;;;11.90;;
75272;SDS011;63869;52.344;16.928;2023-04-21T04:51:34;21.60;;;12.45;;
75272;SDS011;63869;52.344;16.928;2023-04-21T04:54:00;26.55;;;12.45;;
75272;SDS011;63869;52.344;16.928;2023-04-21T04:56:26;22.30;;;12.80;;
75272;SDS011;63869;52.344;16.928;2023-04-21T04:58:51;26.17;;;12.25;;
75272;SDS011;63869;52.344;16.928;2023-04-21T05:01:16;19.55;;;12.05;;
75272;SDS011;63869;52.344;16.928;2023-04-21T05:03:42;20.90;;;11.65;;
75272;SDS011;63869;52.344;16.928;2023-04-21T05:06:09;20.83;;;11.68;;
75272;SDS011;63869;52.344;16.928;2023-04-21T05:08:34;18.10;;;11.85;;
75272;SDS011;63869;52.344;16.928;2023-04-21T05:11:00;20.65;;;12.18;;
75272;SDS011;63869;52.344;16.928;2023-04-21T05:13:25;25.38;;;13.18;;
75272;SDS011;63869;52.344;16.928;2023-04-21T05:15:57;19.30;;;11.98;;
75272;SDS011;63869;52.344;16.928;2023-04-21T05:18:24;19.35;;;11.27;;
75272;SDS011;63869;52.344;16.928;2023-04-21T05:20:49;16.38;;;10.57;;
75272;SDS011;63869;52.344;16.928;2023-04-21T05:23:15;16.20;;;10.43;;
75272;SDS011;63869;52.344;16.928;2023-04-21T05:25:40;16.65;;;10.80;;
75272;SDS011;63869;52.344;16.928;2023-04-21T05:28:05;17.67;;;10.43;;
75272;SDS011;63869;52.344;16.928;2023-04-21T05:30:31;16.63;;;10.40;;
75272;SDS011;63869;52.344;16.928;2023-04-21T05:32:56;16.55;;;10.23;;
75272;SDS011;63869;52.344;16.928;2023-04-21T05:35:21;17.60;;;10.60;;
75272;SDS011;63869;52.344;16.928;2023-04-21T05:37:47;17.58;;;10.68;;
75272;SDS011;63869;52.344;16.928;2023-04-21T05:40:12;16.15;;;11.05;;
75272;SDS011;63869;52.344;16.928;2023-04-21T05:42:37;17.20;;;10.20;;
75272;SDS011;63869;52.344;16.928;2023-04-21T05:45:02;16.48;;;10.35;;
75272;SDS011;63869;52.344;16.928;2023-04-21T05:47:28;16.60;;;9.77;;
75272;SDS011;63869;52.344;16.928;2023-04-21T05:49:54;15.13;;;9.95;;
75272;SDS011;63869;52.344;16.928;2023-04-21T05:52:19;15.80;;;10.00;;
75272;SDS011;63869;52.344;16.928;2023-04-21T05:54:47;18.55;;;10.40;;
75272;SDS011;63869;52.344;16.928;2023-04-21T05:57:13;16.52;;;9.35;;
75272;SDS011;63869;52.344;16.928;2023-04-21T05:59:40;21.08;;;10.60;;
75272;SDS011;63869;52.344;16.928;2023-04-21T06:02:05;18.55;;;11.30;;
75272;SDS011;63869;52.344;16.928;2023-04-21T06:04:31;17.25;;;11.20;;
75272;SDS011;63869;52.344;16.928;2023-04-21T06:06:56;17.67;;;10.25;;
75272;SDS011;63869;52.344;16.928;2023-04-21T06:09:22;18.05;;;9.77;;
75272;SDS011;63869;52.344;16.928;2023-04-21T06:11:47;22.20;;;9.80;;
75272;SDS011;63869;52.344;16.928;2023-04-21T06:14:14;16.98;;;10.60;;
75272;SDS011;63869;52.344;16.928;2023-04-21T06:16:39;16.15;;;10.18;;
75272;SDS011;63869;52.344;16.928;2023-04-21T06:19:05;15.15;;;9.35;;
75272;SDS011;63869;52.344;16.928;2023-04-21T06:21:30;15.88;;;10.15;;
75272;SDS011;63869;52.344;16.928;2023-04-21T06:23:56;15.73;;;9.75;;
75272;SDS011;63869;52.344;16.928;2023-04-21T06:26:22;15.70;;;9.50;;
75272;SDS011;63869;52.344;16.928;2023-04-21T06:28:50;14.32;;;9.15;;
75272;SDS011;63869;52.344;16.928;2023-04-21T06:31:15;15.82;;;9.45;;
75272;SDS011;63869;52.344;16.928;2023-04-21T06:33:40;14.65;;;9.13;;
75272;SDS011;63869;52.344;16.928;2023-04-21T06:36:06;14.02;;;8.45;;
75272;SDS011;63869;52.344;16.928;2023-04-21T06:38:31;13.77;;;9.43;;
75272;SDS011;63869;52.344;16.928;2023-04-21T06:40:57;18.35;;;8.75;;
75272;SDS011;63869;52.344;16.928;2023-04-21T06:43:22;16.02;;;9.05;;
75272;SDS011;63869;52.344;16.928;2023-04-21T06:45:47;18.00;;;9.30;;
75272;SDS011;63869;52.344;16.928;2023-04-21T06:48:13;15.43;;;9.05;;
75272;SDS011;63869;52.344;16.928;2023-04-21T06:50:38;14.38;;;8.80;;
75272;SDS011;63869;52.344;16.928;2023-04-21T06:53:03;13.27;;;9.02;;
75272;SDS011;63869;52.344;16.928;2023-04-21T06:55:29;15.32;;;9.30;;
75272;SDS011;63869;52.344;16.928;2023-04-21T06:57:54;16.70;;;9.23;;
75272;SDS011;63869;52.344;16.928;2023-04-21T07:00:19;15.18;;;9.25;;
75272;SDS011;63869;52.344;16.928;2023-04-21T07:02:45;16.52;;;9.93;;
75272;SDS011;63869;52.344;16.928;2023-04-21T07:05:10;17.02;;;8.95;;
75272;SDS011;63869;52.344;16.928;2023-04-21T07:07:35;14.57;;;9.52;;
75272;SDS011;63869;52.344;16.928;2023-04-21T07:10:01;14.52;;;9.13;;
75272;SDS011;63869;52.344;16.928;2023-04-21T07:12:26;16.10;;;10.13;;
75272;SDS011;63869;52.344;16.928;2023-04-21T07:14:51;14.30;;;8.48;;
75272;SDS011;63869;52.344;16.928;2023-04-21T07:17:17;17.23;;;8.90;;
75272;SDS011;63869;52.344;16.928;2023-04-21T07:19:42;16.35;;;8.63;;
75272;SDS011;63869;52.344;16.928;2023-04-21T07:22:07;13.45;;;8.88;;
75272;SDS011;63869;52.344;16.928;2023-04-21T07:24:33;13.82;;;9.32;;
75272;SDS011;63869;52.344;16.928;2023-04-21T07:26:59;17.83;;;9.02;;
75272;SDS011;63869;52.344;16.928;2023-04-21T07:29:26;14.90;;;8.77;;
75272;SDS011;63869;52.344;16.928;2023-04-21T07:31:52;14.95;;;8.80;;
75272;SDS011;63869;52.344;16.928;2023-04-21T07:34:18;13.20;;;9.25;;
75272;SDS011;63869;52.344;16.928;2023-04-21T07:36:44;15.38;;;9.38;;
75272;SDS011;63869;52.344;16.928;2023-04-21T07:39:09;13.85;;;9.77;;
75272;SDS011;63869;52.344;16.928;2023-04-21T07:41:34;14.05;;;8.93;;
75272;SDS011;63869;52.344;16.928;2023-04-21T07:44:00;14.73;;;8.80;;
75272;SDS011;63869;52.344;16.928;2023-04-21T07:46:25;15.80;;;9.18;;
75272;SDS011;63869;52.344;16.928;2023-04-21T07:48:54;12.93;;;9.23;;
75272;SDS011;63869;52.344;16.928;2023-04-21T07:51:21;18.73;;;8.77;;
75272;SDS011;63869;52.344;16.928;2023-04-21T07:53:47;15.05;;;8.38;;
75272;SDS011;63869;52.344;16.928;2023-04-21T07:56:12;17.75;;;9.43;;
75272;SDS011;63869;52.344;16.928;2023-04-21T07:58:38;17.20;;;9.30;;
75272;SDS011;63869;52.344;16.928;2023-04-21T08:01:03;16.48;;;8.48;;
75272;SDS011;63869;52.344;16.928;2023-04-21T08:03:30;14.63;;;8.90;;
75272;SDS011;63869;52.344;16.928;2023-04-21T08:05:55;14.88;;;8.55;;
75272;SDS011;63869;52.344;16.928;2023-04-21T08:08:20;16.83;;;8.35;;
75272;SDS011;63869;52.344;16.928;2023-04-21T08:10:46;14.15;;;8.60;;
75272;SDS011;63869;52.344;16.928;2023-04-21T08:13:12;15.40;;;8.20;;
75272;SDS011;63869;52.344;16.928;2023-04-21T08:15:38;13.25;;;8.32;;
75272;SDS011;63869;52.344;16.928;2023-04-21T08:18:03;12.15;;;8.02;;
75272;SDS011;63869;52.344;16.928;2023-04-21T08:20:29;13.43;;;8.30;;
75272;SDS011;63869;52.344;16.928;2023-04-21T08:22:54;12.80;;;8.10;;
75272;SDS011;63869;52.344;16.928;2023-04-21T08:25:19;14.93;;;8.50;;
75272;SDS011;63869;52.344;16.928;2023-04-21T08:27:45;11.57;;;7.90;;
75272;SDS011;63869;52.344;16.928;2023-04-21T08:30:10;11.60;;;7.65;;
75272;SDS011;63869;52.344;16.928;2023-04-21T08:32:36;10.77;;;7.55;;
75272;SDS011;63869;52.344;16.928;2023-04-21T08:35:01;12.10;;;7.32;;
75272;SDS011;63869;52.344;16.928;2023-04-21T08:37:27;11.35;;;7.43;;
75272;SDS011;63869;52.344;16.928;2023-04-21T08:39:54;16.13;;;7.78;;
75272;SDS011;63869;52.344;16.928;2023-04-21T08:42:20;10.75;;;7.55;;
75272;SDS011;63869;52.344;16.928;2023-04-21T08:44:45;11.23;;;7.15;;
75272;SDS011;63869;52.344;16.928;2023-04-21T08:47:11;10.75;;;6.88;;
75272;SDS011;63869;52.344;16.928;2023-04-21T08:49:38;9.68;;;6.88;;
75272;SDS011;63869;52.344;16.928;2023-04-21T08:52:05;12.38;;;7.43;;
75272;SDS011;63869;52.344;16.928;2023-04-21T08:54:31;12.38;;;7.15;;
75272;SDS011;63869;52.344;16.928;2023-04-21T08:56:57;12.18;;;6.90;;
75272;SDS011;63869;52.344;16.928;2023-04-21T08:59:22;15.10;;;7.75;;
75272;SDS011;63869;52.344;16.928;2023-04-21T09:02:07;10.63;;;6.88;;
75272;SDS011;63869;52.344;16.928;2023-04-21T09:04:44;12.00;;;7.50;;
75272;SDS011;63869;52.344;16.928;2023-04-21T09:07:11;9.63;;;6.78;;
75272;SDS011;63869;52.344;16.928;2023-04-21T09:09:53;8.98;;;6.47;;
75272;SDS011;63869;52.344;16.928;2023-04-21T09:12:20;9.02;;;6.45;;
75272;SDS011;63869;52.344;16.928;2023-04-21T09:14:46;10.23;;;6.50;;
75272;SDS011;63869;52.344;16.928;2023-04-21T09:17:11;10.63;;;6.57;;
75272;SDS011;63869;52.344;16.928;2023-04-21T09:19:38;12.43;;;6.55;;
75272;SDS011;63869;52.344;16.928;2023-04-21T09:22:04;9.05;;;6.18;;
75272;SDS011;63869;52.344;16.928;2023-04-21T09:24:29;12.90;;;6.97;;
75272;SDS011;63869;52.344;16.928;2023-04-21T09:26:55;12.00;;;6.20;;
75272;SDS011;63869;52.344;16.928;2023-04-21T09:29:23;10.68;;;6.22;;
75272;SDS011;63869;52.344;16.928;2023-04-21T09:31:50;10.40;;;6.47;;
75272;SDS011;63869;52.344;16.928;2023-04-21T09:34:19;8.88;;;6.25;;
75272;SDS011;63869;52.344;16.928;2023-04-21T09:36:48;8.38;;;6.32;;
75272;SDS011;63869;52.344;16.928;2023-04-21T09:39:24;9.60;;;6.30;;
75272;SDS011;63869;52.344;16.928;2023-04-21T09:41:49;11.00;;;7.03;;
75272;SDS011;63869;52.344;16.928;2023-04-21T09:44:15;10.30;;;6.20;;
75272;SDS011;63869;52.344;16.928;2023-04-21T09:46:41;11.27;;;6.60;;
75272;SDS011;63869;52.344;16.928;2023-04-21T09:49:08;12.13;;;6.28;;
75272;SDS011;63869;52.344;16.928;2023-04-21T09:51:35;9.40;;;6.43;;
75272;SDS011;63869;52.344;16.928;2023-04-21T09:54:03;9.45;;;6.75;;
75272;SDS011;63869;52.344;16.928;2023-04-21T09:56:40;10.93;;;6.32;;
75272;SDS011;63869;52.344;16.928;2023-04-21T09:59:07;10.23;;;6.57;;
75272;SDS011;63869;52.344;16.928;2023-04-21T10:01:40;10.37;;;7.03;;
75272;SDS011;63869;52.344;16.928;2023-04-21T10:04:05;9.68;;;6.95;;
75272;SDS011;63869;52.344;16.928;2023-04-21T10:06:31;10.23;;;6.28;;
75272;SDS011;63869;52.344;16.928;2023-04-21T10:08:56;46.83;;;23.63;;
75272;SDS011;63869;52.344;16.928;2023-04-21T10:11:22;27.35;;;14.07;;
75272;SDS011;63869;52.344;16.928;2023-04-21T10:13:48;17.23;;;10.68;;
75272;SDS011;63869;52.344;16.928;2023-04-21T10:16:15;10.18;;;6.03;;
75272;SDS011;63869;52.344;16.928;2023-04-21T10:18:42;12.40;;;7.60;;
75272;SDS011;63869;52.344;16.928;2023-04-21T10:21:10;12.07;;;6.90;;
75272;SDS011;63869;52.344;16.928;2023-04-21T10:23:43;10.00;;;6.93;;
75272;SDS011;63869;52.344;16.928;2023-04-21T10:26:20;13.70;;;8.52;;
75272;SDS011;63869;52.344;16.928;2023-04-21T10:28:53;18.55;;;7.93;;
75272;SDS011;63869;52.344;16.928;2023-04-21T10:31:32;7.72;;;5.25;;
75272;SDS011;63869;52.344;16.928;2023-04-21T10:36:48;18.75;;;12.13;;
75272;SDS011;63869;52.344;16.928;2023-04-21T10:39:28;13.75;;;7.88;;
75272;SDS011;63869;52.344;16.928;2023-04-21T10:44:39;8.68;;;5.95;;
75272;SDS011;63869;52.344;16.928;2023-04-21T10:47:06;9.50;;;5.97;;
75272;SDS011;63869;52.344;16.928;2023-04-21T10:49:31;7.72;;;5.53;;
75272;SDS011;63869;52.344;16.928;2023-04-21T10:52:02;10.23;;;5.68;;
75272;SDS011;63869;52.344;16.928;2023-04-21T10:57:31;11.52;;;6.72;;
75272;SDS011;63869;52.344;16.928;2023-04-21T10:59:58;63.90;;;29.88;;
75272;SDS011;63869;52.344;16.928;2023-04-21T11:02:23;42.97;;;21.20;;
75272;SDS011;63869;52.344;16.928;2023-04-21T11:04:52;31.50;;;17.88;;
75272;SDS011;63869;52.344;16.928;2023-04-21T11:07:22;10.15;;;6.40;;
75272;SDS011;63869;52.344;16.928;2023-04-21T11:09:55;8.15;;;5.95;;
75272;SDS011;63869;52.344;16.928;2023-04-21T11:12:31;11.18;;;6.22;;
75272;SDS011;63869;52.344;16.928;2023-04-21T11:15:07;12.65;;;5.95;;
75272;SDS011;63869;52.344;16.928;2023-04-21T11:17:35;10.52;;;6.75;;
75272;SDS011;63869;52.344;16.928;2023-04-21T11:20:03;10.32;;;6.20;;
75272;SDS011;63869;52.344;16.928;2023-04-21T11:22:30;7.63;;;5.18;;
75272;SDS011;63869;52.344;16.928;2023-04-21T11:24:56;10.70;;;6.80;;
75272;SDS011;63869;52.344;16.928;2023-04-21T11:27:22;8.55;;;5.53;;
75272;SDS011;63869;52.344;16.928;2023-04-21T11:29:51;8.70;;;5.68;;
75272;SDS011;63869;52.344;16.928;2023-04-21T11:32:16;9.55;;;5.10;;
75272;SDS011;63869;52.344;16.928;2023-04-21T11:34:43;8.07;;;5.05;;
75272;SDS011;63869;52.344;16.928;2023-04-21T11:37:13;11.75;;;6.50;;
75272;SDS011;63869;52.344;16.928;2023-04-21T11:39:40;9.35;;;4.63;;
75272;SDS011;63869;52.344;16.928;2023-04-21T11:42:06;11.95;;;7.70;;
75272;SDS011;63869;52.344;16.928;2023-04-21T11:44:41;10.27;;;7.00;;
75272;SDS011;63869;52.344;16.928;2023-04-21T11:47:21;7.40;;;4.50;;
75272;SDS011;63869;52.344;16.928;2023-04-21T11:49:52;8.18;;;5.35;;
75272;SDS011;63869;52.344;16.928;2023-04-21T11:52:28;6.00;;;4.72;;
75272;SDS011;63869;52.344;16.928;2023-04-21T11:54:59;8.10;;;5.80;;
75272;SDS011;63869;52.344;16.928;2023-04-21T11:57:30;14.20;;;7.65;;
75272;SDS011;63869;52.344;16.928;2023-04-21T11:59:57;31.35;;;17.80;;
75272;SDS011;63869;52.344;16.928;2023-04-21T12:02:24;28.77;;;17.20;;
75272;SDS011;63869;52.344;16.928;2023-04-21T12:05:02;35.78;;;19.38;;
75272;SDS011;63869;52.344;16.928;2023-04-21T12:07:30;8.27;;;5.80;;
75272;SDS011;63869;52.344;16.928;2023-04-21T12:09:59;8.32;;;5.45;;
75272;SDS011;63869;52.344;16.928;2023-04-21T12:12:27;12.00;;;5.30;;
75272;SDS011;63869;52.344;16.928;2023-04-21T12:14:53;7.32;;;5.03;;
75272;SDS011;63869;52.344;16.928;2023-04-21T12:17:20;7.22;;;4.78;;
75272;SDS011;63869;52.344;16.928;2023-04-21T12:19:45;8.18;;;5.10;;
75272;SDS011;63869;52.344;16.928;2023-04-21T12:22:11;10.32;;;5.95;;
75272;SDS011;63869;52.344;16.928;2023-04-21T12:24:39;10.05;;;6.93;;
75272;SDS011;63869;52.344;16.928;2023-04-21T12:27:05;30.92;;;6.57;;
75272;SDS011;63869;52.344;16.928;2023-04-21T12:29:31;8.90;;;4.90;;
75272;SDS011;63869;52.344;16.928;2023-04-21T12:32:02;6.70;;;4.82;;
75272;SDS011;63869;52.344;16.928;2023-04-21T12:34:29;7.80;;;4.20;;
75272;SDS011;63869;52.344;16.928;2023-04-21T12:36:54;5.80;;;4.60;;
75272;SDS011;63869;52.344;16.928;2023-04-21T12:39:19;6.85;;;4.63;;
75272;SDS011;63869;52.344;16.928;2023-04-21T12:41:46;19.40;;;11.63;;
75272;SDS011;63869;52.344;16.928;2023-04-21T12:44:11;8.43;;;4.93;;
75272;SDS011;63869;52.344;16.928;2023-04-21T12:46:37;7.28;;;5.20;;
75272;SDS011;63869;52.344;16.928;2023-04-21T12:49:02;11.57;;;6.30;;
75272;SDS011;63869;52.344;16.928;2023-04-21T12:51:30;13.27;;;7.03;;
75272;SDS011;63869;52.344;16.928;2023-04-21T12:53:56;10.48;;;7.10;;
75272;SDS011;63869;52.344;16.928;2023-04-21T12:56:21;5.65;;;4.70;;
75272;SDS011;63869;52.344;16.928;2023-04-21T12:58:46;13.53;;;8.37;;
75272;SDS011;63869;52.344;16.928;2023-04-21T13:01:12;11.15;;;4.80;;
75272;SDS011;63869;52.344;16.928;2023-04-21T13:03:39;15.32;;;8.95;;
75272;SDS011;63869;52.344;16.928;2023-04-21T13:06:04;22.05;;;12.98;;
75272;SDS011;63869;52.344;16.928;2023-04-21T13:08:30;8.65;;;6.25;;
75272;SDS011;63869;52.344;16.928;2023-04-21T13:10:58;15.45;;;7.60;;
75272;SDS011;63869;52.344;16.928;2023-04-21T13:13:23;18.13;;;9.88;;
75272;SDS011;63869;52.344;16.928;2023-04-21T13:15:49;7.72;;;5.32;;
75272;SDS011;63869;52.344;16.928;2023-04-21T13:18:14;11.18;;;5.70;;
75272;SDS011;63869;52.344;16.928;2023-04-21T13:20:40;23.60;;;13.55;;
75272;SDS011;63869;52.344;16.928;2023-04-21T13:23:05;8.73;;;5.18;;
75272;SDS011;63869;52.344;16.928;2023-04-21T13:25:32;12.93;;;8.63;;
75272;SDS011;63869;52.344;16.928;2023-04-21T13:27:58;21.65;;;13.50;;
75272;SDS011;63869;52.344;16.928;2023-04-21T13:30:23;28.70;;;15.57;;
75272;SDS011;63869;52.344;16.928;2023-04-21T13:32:48;15.90;;;7.70;;
75272;SDS011;63869;52.344;16.928;2023-04-21T13:35:14;12.23;;;7.10;;
75272;SDS011;63869;52.344;16.928;2023-04-21T13:37:39;9.57;;;5.60;;
75272;SDS011;63869;52.344;16.928;2023-04-21T13:40:05;17.27;;;10.80;;
75272;SDS011;63869;52.344;16.928;2023-04-21T13:42:33;19.38;;;12.02;;
75272;SDS011;63869;52.344;16.928;2023-04-21T13:44:59;15.82;;;9.90;;
75272;SDS011;63869;52.344;16.928;2023-04-21T13:47:29;6.93;;;5.10;;
75272;SDS011;63869;52.344;16.928;2023-04-21T13:49:55;7.50;;;5.40;;
75272;SDS011;63869;52.344;16.928;2023-04-21T13:52:20;25.80;;;14.80;;
75272;SDS011;63869;52.344;16.928;2023-04-21T13:54:47;11.13;;;5.88;;
75272;SDS011;63869;52.344;16.928;2023-04-21T13:57:12;11.00;;;4.57;;
75272;SDS011;63869;52.344;16.928;2023-04-21T13:59:38;17.42;;;8.63;;
75272;SDS011;63869;52.344;16.928;2023-04-21T14:02:03;7.90;;;4.60;;
75272;SDS011;63869;52.344;16.928;2023-04-21T14:04:29;7.10;;;4.63;;
75272;SDS011;63869;52.344;16.928;2023-04-21T14:06:54;10.77;;;6.53;;
75272;SDS011;63869;52.344;16.928;2023-04-21T14:09:20;33.95;;;7.55;;
75272;SDS011;63869;52.344;16.928;2023-04-21T14:11:45;7.20;;;3.95;;
75272;SDS011;63869;52.344;16.928;2023-04-21T14:14:11;10.45;;;4.38;;
75272;SDS011;63869;52.344;16.928;2023-04-21T14:16:36;8.77;;;5.10;;
75272;SDS011;63869;52.344;16.928;2023-04-21T14:19:02;8.43;;;5.18;;
75272;SDS011;63869;52.344;16.928;2023-04-21T14:21:27;5.45;;;3.95;;